Latest Weather Observations for Hervey Bay

IDQ60801

Issued at 9:31 am EST Saturday 1 August 2015 (issued every 30 minutes, with the page automatically refreshed every 10 minutes)

About weather observations | Map of weather stations | Latest weather observations for QLD | Other Formats
Station Details ID: 040405 Name: HERVEY BAY AIRPORT Lat: -25.32 Lon: 152.88 Height: 12.98 m
Data from the previous 72 hours. | See also: Recent months at Hervey Bay
Date/Time
EST
Temp
°C
App
Temp
°C
Dew
Point
Rel
Hum
%
Delta-T
°C
Wind Press
QNH
hPa
Press
MSL
hPa
Rain
since 9 am
mm
Dir
 
Spd
km/h
Gust
km/h
Spd
kts
Gust
kts
01/09:00am 16.8 15.1 12.3 75 2.5 SW 13 17 7 9 1023.7 1023.7 0.0
01/08:30am 14.5 13.7 11.8 84 1.5 SW 7 9 4 5 1023.5 1023.5 0.0
01/08:20am 13.8 12.9 11.5 86 1.2 SW 7 9 4 5 1023.4 1023.4 0.0
01/08:00am 12.4 11.3 10.5 88 1.0 SSW 7 9 4 5 1023.2 1023.2 0.0
01/07:30am 11.2 11.3 10.3 94 0.5 CALM 0 0 0 0 1023.2 1023.2 0.0
01/07:00am 9.2 8.1 8.6 96 0.3 SSW 4 6 2 3 1023.0 1023.0 0.0
01/06:30am 7.2 5.2 6.1 93 0.5 SW 6 7 3 4 1022.8 1022.8 0.0
01/06:00am 7.4 5.5 6.5 94 0.4 SSW 6 6 3 3 1022.5 1022.5 0.0
01/05:38am 7.3 5.1 6.2 93 0.5 SSW 7 7 4 4 1022.5 1022.5 0.0
01/05:30am 7.0 4.9 5.8 92 0.5 SSW 6 7 3 4 1022.5 1022.5 0.0
01/05:06am 7.2 5.2 6.1 93 0.5 SSW 6 6 3 3 1022.2 1022.2 0.0
01/05:00am 7.1 5.0 6.0 93 0.5 SSW 6 6 3 3 1022.1 1022.1 0.0
01/04:30am 7.2 6.3 6.1 93 0.5 CALM 0 0 0 0 1022.0 1022.0 0.0
01/04:00am 7.2 5.2 6.1 93 0.5 SSW 6 7 3 4 1021.8 1021.8 0.0
01/03:30am 7.4 5.4 6.3 93 0.5 SSW 6 7 3 4 1021.9 1021.9 0.0
01/03:22am 7.8 5.9 6.9 94 0.4 SSW 6 7 3 4 1021.9 1021.9 0.0
01/03:00am 7.4 6.1 6.2 92 0.5 SW 2 7 1 4 1021.9 1021.9 0.0
01/02:30am 7.6 6.8 6.4 92 0.5 CALM 0 0 0 0 1021.8 1021.8 0.0
01/02:00am 7.9 7.2 6.8 93 0.5 CALM 0 0 0 0 1021.9 1021.9 0.0
01/01:30am 8.4 7.8 7.5 94 0.4 CALM 0 0 0 0 1022.1 1022.1 0.0
01/01:00am 8.2 6.8 7.1 93 0.5 WSW 4 6 2 3 1022.3 1022.3 0.0
01/12:30am 8.2 6.4 7.0 92 0.6 SW 6 7 3 4 1022.3 1022.3 0.0
01/12:00am 8.2 7.5 6.8 91 0.6 CALM 0 0 0 0 1022.4 1022.4 0.0
 
Date/Time
EST
Temp
°C
App
Temp
°C
Dew
Point
Rel
Hum
%
Delta-T
°C
Wind Press
QNH
hPa
Press
MSL
hPa
Rain
since 9 am
mm
Dir
 
Spd
km/h
Gust
km/h
Spd
kts
Gust
kts
31/11:30pm 8.5 7.4 7.1 91 0.7 SW 2 6 1 3 1022.5 1022.5 0.0
31/11:00pm 9.0 7.7 7.8 92 0.6 SW 4 6 2 3 1022.6 1022.6 0.0
31/10:30pm 8.8 7.0 7.3 90 0.7 SSW 6 7 3 4 1022.4 1022.4 0.0
31/10:00pm 9.2 8.6 7.5 89 0.8 CALM 0 0 0 0 1022.3 1022.3 0.0
31/09:30pm 9.6 9.1 7.9 89 0.8 CALM 0 0 0 0 1022.2 1022.2 0.0
31/09:00pm 10.3 10.0 8.7 90 0.8 CALM 0 0 0 0 1022.1 1022.1 0.0
31/08:30pm 10.4 10.0 8.2 86 1.1 CALM 0 0 0 0 1021.8 1021.8 0.0
31/08:00pm 10.9 10.6 8.5 85 1.2 CALM 0 0 0 0 1021.6 1021.6 0.0
31/07:30pm 11.4 10.0 8.8 84 1.3 NNE 6 7 3 4 1021.4 1021.4 0.0
31/07:00pm 12.1 11.1 8.9 81 1.6 NE 4 7 2 4 1021.3 1021.3 0.0
31/06:30pm 13.3 11.9 8.8 74 2.3 NE 6 9 3 5 1021.1 1021.1 0.0
31/06:00pm 15.6 14.2 9.7 68 3.1 E 7 15 4 8 1020.9 1020.9 0.0
31/05:30pm 18.1 16.6 10.7 62 4.0 ENE 9 11 5 6 1020.8 1020.8 0.0
31/05:00pm 20.1 17.8 7.5 44 6.4 NE 9 11 5 6 1020.5 1020.5 0.0
31/04:30pm 21.6 18.9 7.4 40 7.3 NNE 11 13 6 7 1020.2 1020.2 0.0
31/04:00pm 22.3 19.3 6.1 35 8.2 NNE 11 15 6 8 1020.2 1020.2 0.0
31/03:30pm 22.7 19.4 6.5 35 8.3 N 13 17 7 9 1020.2 1020.2 0.0
31/03:00pm 23.2 20.1 5.6 32 8.8 NE 11 17 6 9 1020.3 1020.3 0.0
31/02:30pm 23.5 19.9 4.9 30 9.3 ENE 13 20 7 11 1020.4 1020.4 0.0
31/02:00pm 23.5 19.7 4.0 28 9.5 ENE 13 17 7 9 1020.6 1020.6 0.0
31/01:30pm 23.6 19.9 6.4 33 8.8 ENE 15 20 8 11 1020.9 1020.9 0.0
31/01:00pm 23.7 19.5 5.6 31 9.1 E 17 20 9 11 1021.4 1021.4 0.0
31/12:30pm 23.0 18.9 4.5 30 9.1 E 15 17 8 9 1022.1 1022.1 0.0
31/12:00pm 22.4 19.1 4.5 31 8.8 E 11 15 6 8 1022.7 1022.7 0.0
31/11:30am 22.2 20.7 11.9 52 5.8 E 11 15 6 8 1022.9 1022.9 0.0
31/11:00am 21.7 20.1 11.7 53 5.6 E 11 13 6 7 1023.9 1023.9 0.0
31/10:30am 21.4 21.8 13.8 62 4.4 SSE 4 13 2 7 1023.9 1023.9 0.0
31/10:00am 20.3 20.4 14.0 67 3.6 E 6 9 3 5 1024.2 1024.2 0.0
31/09:30am 18.5 18.9 13.8 74 2.7 S 4 7 2 4 1024.1 1024.1 0.0
31/09:00am 16.2 16.4 13.1 82 1.7 SSE 4 7 2 4 1024.3 1024.3 0.0
31/08:30am 14.6 12.9 12.3 86 1.3 SSW 13 17 7 9 1024.2 1024.2 0.0
31/08:00am 13.3 11.0 11.9 91 0.7 SSW 15 19 8 10 1024.0 1024.0 0.0
31/07:30am 11.9 10.5 10.8 93 0.6 SSW 9 13 5 7 1023.4 1023.4 0.0
31/07:00am 10.6 10.5 9.5 93 0.5 CALM 0 6 0 3 1023.2 1023.2 0.0
31/06:30am 10.8 9.5 10.0 95 0.4 SSW 7 11 4 6 1023.4 1023.4 0.0
31/06:00am 11.1 9.1 10.3 95 0.4 SW 11 17 6 9 1023.3 1023.3 0.0
31/05:30am 11.3 9.0 10.5 95 0.4 SSW 13 19 7 10 1023.2 1023.2 0.0
31/05:00am 11.1 8.8 10.5 96 0.3 SSW 13 17 7 9 1022.8 1022.8 0.0
31/04:30am 10.1 10.0 9.3 95 0.4 CALM 0 0 0 0 1022.5 1022.5 0.0
31/04:06am 10.9 9.7 10.3 96 0.3 SW 7 9 4 5 1022.3 1022.3 0.0
31/04:00am 10.8 9.6 10.2 96 0.3 SW 7 9 4 5 1022.4 1022.4 0.0
31/03:49am 10.5 9.4 10.0 97 0.3 WSW 6 9 3 5 1022.5 1022.5 0.0
31/03:30am 10.2 8.8 9.7 97 0.3 WSW 7 7 4 4 1022.6 1022.6 0.0
31/03:07am 8.2 6.4 7.1 93 0.5 SW 6 6 3 3 1022.7 1022.7 0.0
31/03:00am 7.9 6.4 6.8 93 0.5 SW 4 9 2 5 1022.7 1022.7 0.0
31/02:52am 7.9 7.1 6.7 92 0.6 CALM 0 0 0 0 1022.7 1022.7 0.0
31/02:44am 8.2 7.5 7.1 93 0.5 CALM 0 0 0 0 1022.7 1022.7 0.0
31/02:30am 8.2 7.5 7.1 93 0.5 CALM 0 0 0 0 1022.8 1022.8 0.0
31/02:07am 8.7 7.0 7.6 93 0.5 SSW 6 7 3 4 1022.8 1022.8 0.0
31/02:00am 9.0 7.4 7.9 93 0.5 SSW 6 7 3 4 1022.8 1022.8 0.0
31/01:52am 8.5 6.7 7.3 92 0.6 SSW 6 7 3 4 1022.9 1022.9 0.0
31/01:30am 8.6 7.3 7.5 93 0.5 SSW 4 6 2 3 1023.2 1023.2 0.0
31/01:23am 8.7 7.7 7.5 92 0.6 SSW 2 6 1 3 1023.4 1023.4 0.0
31/01:05am 8.8 7.1 7.6 92 0.6 SW 6 7 3 4 1023.7 1023.7 0.0
31/01:00am 8.8 7.1 7.6 92 0.6 WSW 6 7 3 4 1023.7 1023.7 0.0
31/12:30am 9.1 7.9 7.9 92 0.6 WSW 4 6 2 3 1023.9 1023.9 0.0
31/12:19am 9.2 7.6 8.0 92 0.6 SW 6 6 3 3 1023.9 1023.9 0.0
31/12:00am 9.7 8.3 8.8 94 0.4 SSW 6 7 3 4 1024.1 1024.1 0.0
 
Date/Time
EST
Temp
°C
App
Temp
°C
Dew
Point
Rel
Hum
%
Delta-T
°C
Wind Press
QNH
hPa
Press
MSL
hPa
Rain
since 9 am
mm
Dir
 
Spd
km/h
Gust
km/h
Spd
kts
Gust
kts
30/11:30pm 9.4 7.8 8.2 92 0.6 SSW 6 7 3 4 1024.3 1024.3 0.0
30/11:17pm 9.8 8.2 8.7 93 0.5 SW 7 7 4 4 1024.3 1024.3 0.0
30/11:00pm 9.7 9.4 8.5 92 0.6 CALM 0 0 0 0 1024.3 1024.3 0.0
30/10:30pm 10.2 9.6 9.0 92 0.6 SSW 2 6 1 3 1024.4 1024.4 0.0
30/10:00pm 10.4 9.0 9.0 91 0.7 SSW 6 7 3 4 1024.7 1024.7 0.0
30/09:30pm 10.7 9.2 9.3 91 0.7 SW 7 7 4 4 1024.7 1024.7 0.0
30/09:00pm 11.3 10.6 10.0 92 0.7 SW 4 9 2 5 1024.5 1024.5 0.0
30/08:30pm 11.8 10.9 10.5 92 0.7 SSW 6 7 3 4 1024.1 1024.1 0.0
30/08:00pm 12.2 11.6 10.3 88 1.0 S 4 6 2 3 1024.2 1024.2 0.0
30/07:30pm 13.1 12.2 10.8 86 1.2 S 6 7 3 4 1024.4 1024.4 0.0
30/07:00pm 15.2 14.9 13.2 88 1.1 SSE 7 11 4 6 1024.5 1024.5 0.0
30/06:30pm 15.4 15.0 12.5 83 1.6 SSW 6 7 3 4 1024.4 1024.4 0.0
30/06:00pm 17.0 16.4 13.5 80 2.0 SE 9 13 5 7 1024.0 1024.0 0.0
30/05:30pm 17.9 17.3 13.6 76 2.4 SE 9 11 5 6 1023.7 1023.7 0.0
30/05:00pm 18.9 17.5 13.3 70 3.2 SE 13 17 7 9 1023.2 1023.2 0.0
30/04:30pm 19.9 18.4 13.1 65 3.9 SE 13 20 7 11 1023.2 1023.2 0.0
30/04:00pm 20.3 17.9 12.5 61 4.4 SE 17 24 9 13 1023.4 1023.4 0.0
30/03:30pm 21.0 18.7 12.9 60 4.6 SE 17 26 9 14 1023.4 1023.4 0.0
30/03:00pm 21.4 18.8 13.1 59 4.7 ESE 19 26 10 14 1023.5 1023.5 0.0
30/02:30pm 21.6 18.8 12.5 56 5.2 ESE 19 28 10 15 1023.6 1023.6 0.0
30/02:00pm 22.1 19.3 12.6 55 5.4 ESE 19 26 10 14 1023.8 1023.8 0.0
30/01:30pm 22.0 19.2 12.5 54 5.4 ESE 19 26 10 14 1024.2 1024.2 0.0
30/01:00pm 21.6 18.8 12.5 56 5.1 SE 19 28 10 15 1024.6 1024.6 0.0
30/12:30pm 22.1 19.7 12.6 55 5.4 SE 17 26 9 14 1024.8 1024.8 0.0
30/12:00pm 21.5 18.5 11.8 54 5.4 S 19 26 10 14 1025.4 1025.4 0.0
30/11:30am 21.2 19.5 12.3 57 5.0 SSE 13 26 7 14 1025.8 1025.8 0.0
30/11:00am 20.7 18.0 11.6 56 5.0 S 17 26 9 14 1026.2 1026.2 0.0
30/10:30am 20.2 17.6 11.9 59 4.6 SSW 17 24 9 13 1026.5 1026.5 0.0
30/10:00am 19.1 15.8 10.9 59 4.4 SSW 19 26 10 14 1026.7 1026.7 0.0
30/09:30am 18.7 15.8 11.0 61 4.2 SSW 17 28 9 15 1026.7 1026.7 0.0
30/09:00am 17.3 14.4 10.9 66 3.4 S 17 24 9 13 1026.8 1026.8 0.0
30/08:30am 14.9 12.5 10.1 73 2.5 SSW 13 17 7 9 1026.6 1026.6 0.0
30/08:00am 12.8 10.1 9.1 78 1.9 SSW 13 17 7 9 1026.7 1026.7 0.0
30/07:30am 11.8 9.0 8.6 81 1.6 SW 13 17 7 9 1026.6 1026.6 0.0
30/07:00am 10.8 8.3 8.4 85 1.2 SW 11 15 6 8 1026.5 1026.5 0.0
30/06:30am 10.4 7.6 8.7 89 0.8 SW 13 15 7 8 1026.3 1026.3 0.0
30/06:00am 9.7 7.6 8.1 90 0.8 SW 9 13 5 7 1026.1 1026.1 0.0
30/05:30am 10.1 8.0 8.2 88 0.9 SSW 9 9 5 5 1025.7 1025.7 0.0
30/05:00am 10.9 8.9 8.7 86 1.1 SSW 9 15 5 8 1025.9 1025.9 0.0
30/04:30am 11.3 8.6 8.9 85 1.2 SW 13 17 7 9 1026.1 1026.1 0.0
30/04:00am 11.7 9.0 9.1 84 1.3 SSW 13 17 7 9 1026.1 1026.1 0.0
30/03:30am 11.6 9.0 9.2 85 1.2 SW 13 17 7 9 1026.1 1026.1 0.0
30/03:00am 11.2 9.4 9.5 89 0.8 SSW 9 13 5 7 1026.0 1026.0 0.0
30/02:30am 11.5 9.3 9.4 87 1.1 SW 11 15 6 8 1026.1 1026.1 0.0
30/02:00am 11.6 9.7 9.2 85 1.2 SSW 9 11 5 6 1026.1 1026.1 0.0
30/01:30am 12.1 10.0 9.7 85 1.2 SSW 11 13 6 7 1026.8 1026.8 0.0
30/01:00am 13.0 10.6 10.0 82 1.5 SSW 13 17 7 9 1027.5 1027.5 0.0
30/12:30am 12.5 11.0 10.6 88 1.0 SSW 9 11 5 6 1027.6 1027.6 0.0
30/12:00am 12.9 11.0 10.6 86 1.2 SSW 11 15 6 8 1027.6 1027.6 0.0
 
Date/Time
EST
Temp
°C
App
Temp
°C
Dew
Point
Rel
Hum
%
Delta-T
°C
Wind Press
QNH
hPa
Press
MSL
hPa
Rain
since 9 am
mm
Dir
 
Spd
km/h
Gust
km/h
Spd
kts
Gust
kts
29/11:30pm 13.2 10.9 10.6 84 1.4 SSW 13 15 7 8 1027.8 1027.8 0.0
29/11:00pm 13.7 11.4 10.5 81 1.7 SSW 13 19 7 10 1027.9 1027.9 0.0
29/10:30pm 14.0 11.8 10.8 81 1.7 SSW 13 15 7 8 1028.3 1028.3 0.0
29/10:00pm 14.2 12.1 11.2 82 1.6 SSW 13 17 7 9 1028.3 1028.3 0.0
29/09:30pm 14.2 12.9 11.4 83 1.5 SW 9 15 5 8 1028.2 1028.2 0.0
29/09:00pm 14.1 13.0 11.8 86 1.2 SW 9 13 5 7 1028.2 1028.2 0.0
29/08:30pm 14.1 12.8 11.3 83 1.5 SSW 9 11 5 6 1028.1 1028.1 0.0
29/08:00pm 14.9 13.3 11.5 80 1.8 SSW 11 13 6 7 1028.0 1028.0 0.0
29/07:30pm 15.6 14.0 11.4 76 2.3 S 11 15 6 8 1027.9 1027.9 0.0
29/07:00pm 16.3 15.1 11.7 74 2.5 S 9 17 5 9 1027.8 1027.8 0.0
29/06:30pm 16.7 15.2 11.8 73 2.7 S 11 15 6 8 1027.5 1027.5 0.0
29/06:00pm 17.5 15.7 12.0 70 3.0 S 13 20 7 11 1027.4 1027.4 0.0
29/05:30pm 18.3 15.8 12.3 68 3.3 SSE 17 32 9 17 1027.2 1027.2 0.0
29/05:00pm 18.7 16.2 12.2 66 3.6 SSE 17 30 9 16 1026.9 1026.9 0.0
29/04:30pm 19.2 16.0 12.0 63 4.0 SSE 20 32 11 17 1026.8 1026.8 0.0
29/04:00pm 19.3 15.7 11.8 62 4.1 SSE 22 37 12 20 1026.8 1026.8 0.0
29/03:30pm 19.6 16.3 11.6 60 4.4 SSE 20 33 11 18 1026.8 1026.8 0.0
29/03:00pm 20.4 16.9 12.1 59 4.6 SSE 22 32 12 17 1026.7 1026.7 0.0
29/02:30pm 20.7 17.7 12.4 59 4.7 SSE 20 35 11 19 1026.8 1026.8 0.0
29/02:00pm 20.7 17.6 12.1 58 4.8 SE 20 33 11 18 1026.9 1026.9 0.0
29/01:30pm 20.7 16.6 11.3 55 5.2 SSE 24 35 13 19 1027.0 1027.0 0.0
29/01:00pm 20.7 17.1 11.9 57 4.9 SSE 22 35 12 19 1027.4 1027.4 0.0
29/12:30pm 20.3 16.2 11.5 57 4.9 SSE 24 37 13 20 1027.9 1027.9 0.0
29/12:00pm 20.7 17.4 11.6 56 5.0 S 20 35 11 19 1028.3 1028.3 0.0
29/11:30am 20.4 17.1 11.6 57 4.9 S 20 30 11 16 1028.8 1028.8 0.0
29/11:00am 19.8 16.5 10.8 56 4.9 S 19 28 10 15 1029.2 1029.2 0.0
29/10:30am 19.0 15.3 10.3 57 4.7 S 20 33 11 18 1029.7 1029.7 0.0
29/10:00am 18.0 14.2 9.9 59 4.3 SSW 20 35 11 19 1029.9 1029.9 0.0

Other Formats:

Comma delimited format used in spreadsheet applications
http://www.bom.gov.au/fwo/IDQ60801/IDQ60801.95565.axf

JavaScript Object Notation format (JSON) in row-major order
http://www.bom.gov.au/fwo/IDQ60801/IDQ60801.95565.json